TimeCST,TemperatureF,Dew PointF,Humidity,Sea Level PressureIn,VisibilityMPH,Wind Direction,Wind SpeedMPH,Gust SpeedMPH,PrecipitationIn,Events,Conditions,WindDirDegrees,DateUTC
12:53 AM,45.0,39.0,80,30.19,10.0,Calm,Calm,-,N/A,,Overcast,0,2013-01-08 06:53:00
1:53 AM,46.0,37.9,73,30.18,10.0,Calm,Calm,-,N/A,,Overcast,0,2013-01-08 07:53:00
2:53 AM,46.9,37.9,71,30.17,10.0,Calm,Calm,-,N/A,,Overcast,0,2013-01-08 08:53:00
3:53 AM,46.9,37.9,71,30.15,10.0,East,4.6,-,N/A,,Mostly Cloudy,80,2013-01-08 09:53:00
4:53 AM,46.0,37.9,73,30.15,10.0,Calm,Calm,-,N/A,,Clear,0,2013-01-08 10:53:00
6:53 AM,46.0,37.9,73,30.17,10.0,East,4.6,-,N/A,,Clear,90,2013-01-08 12:53:00
7:53 AM,46.9,39.9,77,30.20,10.0,Calm,Calm,-,N/A,,Clear,0,2013-01-08 13:53:00
8:53 AM,51.1,44.1,77,30.20,10.0,East,8.1,-,N/A,,Clear,100,2013-01-08 14:53:00
9:53 AM,57.9,48.9,72,30.22,10.0,SE,4.6,-,N/A,,Partly Cloudy,140,2013-01-08 15:53:00
10:53 AM,62.1,53.1,72,30.20,10.0,SSE,6.9,-,N/A,,Mostly Cloudy,150,2013-01-08 16:53:00
11:19 AM,62.6,53.6,72,30.20,10.0,SE,6.9,-,N/A,,Overcast,130,2013-01-08 17:19:00
11:36 AM,60.8,53.6,77,30.20,10.0,SE,5.8,-,N/A,,Overcast,140,2013-01-08 17:36:00
11:53 AM,62.1,54.0,75,30.18,10.0,SE,6.9,-,N/A,,Overcast,140,2013-01-08 17:53:00
12:24 PM,60.8,55.4,82,30.16,10.0,Variable,5.8,-,N/A,,Overcast,0,2013-01-08 18:24:00
12:53 PM,61.0,55.9,83,30.14,10.0,Variable,5.8,-,N/A,,Overcast,0,2013-01-08 18:53:00
1:53 PM,59.0,57.9,96,30.12,7.0,Variable,3.5,-,0.02,Rain,Light Rain,0,2013-01-08 19:53:00
2:30 PM,59.0,57.2,94,30.12,6.0,SE,4.6,-,0.01,Rain,Light Rain,130,2013-01-08 20:30:00
2:53 PM,59.0,57.9,96,30.11,7.0,ESE,6.9,-,0.02,Rain,Light Rain,110,2013-01-08 20:53:00
3:53 PM,57.9,57.9,100,30.09,6.0,Calm,Calm,-,0.01,,Overcast,0,2013-01-08 21:53:00
4:53 PM,57.9,57.0,97,30.10,6.0,ESE,5.8,-,0.01,Rain,Light Rain,110,2013-01-08 22:53:00
5:53 PM,57.9,55.9,93,30.13,7.0,ESE,3.5,-,0.05,Rain,Light Rain,110,2013-01-08 23:53:00
6:53 PM,57.0,55.9,96,30.13,7.0,ENE,4.6,-,0.06,Rain,Light Rain,70,2013-01-09 00:53:00
7:53 PM,57.0,55.9,96,30.14,6.0,Calm,Calm,-,0.05,Rain,Light Rain,0,2013-01-09 01:53:00
8:53 PM,57.0,57.0,100,30.16,2.5,Calm,Calm,-,0.05,Rain,Light Rain,0,2013-01-09 02:53:00
9:06 PM,57.2,57.2,100,30.16,2.5,Calm,Calm,-,0.02,Rain,Light Rain,0,2013-01-09 03:06:00
9:13 PM,57.2,57.2,100,30.16,4.0,East,3.5,-,0.03,Rain,Rain,100,2013-01-09 03:13:00
9:34 PM,57.2,57.2,100,30.15,5.0,NNE,4.6,-,0.05,Rain,Light Rain,30,2013-01-09 03:34:00
9:53 PM,57.0,57.0,100,30.17,3.0,Calm,Calm,-,0.08,Rain,Rain,0,2013-01-09 03:53:00
10:24 PM,57.2,57.2,100,30.16,3.0,ENE,3.5,-,0.09,Rain,Rain,70,2013-01-09 04:24:00
11:37 PM,57.2,57.2,100,30.19,2.0,SSE,5.8,-,0.21,Rain,Heavy Rain,160,2013-01-09 05:37:00
11:53 PM,57.0,57.0,100,30.18,2.0,East,4.6,-,0.31,Rain,Heavy Rain,90,2013-01-09 05:53:00